sensor_id;sensor_type;location;lat;lon;timestamp;pressure;altitude;pressure_sealevel;temperature;humidity
79374;BME280;68844;53.128;17.958;2023-08-06T10:13:39;99175.05;;;20.01;82.51
79374;BME280;68844;53.128;17.958;2023-08-06T10:16:06;99166.63;;;20.36;81.61
79374;BME280;68844;53.128;17.958;2023-08-06T10:18:34;99166.98;;;20.43;81.20
79374;BME280;68844;53.128;17.958;2023-08-06T10:21:02;99177.90;;;20.23;81.51
79374;BME280;68844;53.128;17.958;2023-08-06T10:23:36;99180.33;;;20.04;81.71
79374;BME280;68844;53.128;17.958;2023-08-06T10:26:04;99182.22;;;19.74;82.68
79374;BME280;68844;53.128;17.958;2023-08-06T10:28:36;99179.38;;;19.71;83.00
79374;BME280;68844;53.128;17.958;2023-08-06T10:31:04;99166.40;;;19.63;83.64
79374;BME280;68844;53.128;17.958;2023-08-06T10:33:41;99168.65;;;19.71;83.43
79374;BME280;68844;53.128;17.958;2023-08-06T10:36:09;99172.01;;;19.83;83.22
79374;BME280;68844;53.128;17.958;2023-08-06T10:38:47;99165.84;;;19.84;83.48
79374;BME280;68844;53.128;17.958;2023-08-06T10:41:27;99165.94;;;19.95;83.28
79374;BME280;68844;53.128;17.958;2023-08-06T10:44:10;99165.52;;;19.97;83.11
79374;BME280;68844;53.128;17.958;2023-08-06T10:46:37;99159.53;;;20.01;82.66
79374;BME280;68844;53.128;17.958;2023-08-06T10:49:05;99151.13;;;19.91;83.11
79374;BME280;68844;53.128;17.958;2023-08-06T10:51:34;99143.81;;;19.87;83.41
79374;BME280;68844;53.128;17.958;2023-08-06T10:54:02;99131.43;;;19.95;83.45
79374;BME280;68844;53.128;17.958;2023-08-06T10:56:28;99126.16;;;20.05;83.06
79374;BME280;68844;53.128;17.958;2023-08-06T10:58:56;99119.27;;;20.03;83.60
79374;BME280;68844;53.128;17.958;2023-08-06T11:01:24;99111.69;;;20.11;83.41
79374;BME280;68844;53.128;17.958;2023-08-06T11:03:51;99114.04;;;20.19;82.80
79374;BME280;68844;53.128;17.958;2023-08-06T11:06:20;99113.31;;;20.21;82.98
79374;BME280;68844;53.128;17.958;2023-08-06T11:08:53;99103.05;;;20.25;82.79
79374;BME280;68844;53.128;17.958;2023-08-06T11:11:22;99097.14;;;20.30;82.56
79374;BME280;68844;53.128;17.958;2023-08-06T11:13:50;99089.20;;;20.35;82.49
79374;BME280;68844;53.128;17.958;2023-08-06T11:16:19;99084.77;;;20.37;82.47
79374;BME280;68844;53.128;17.958;2023-08-06T11:18:46;99085.92;;;20.24;82.70
79374;BME280;68844;53.128;17.958;2023-08-06T11:21:14;99082.54;;;20.18;82.95
79374;BME280;68844;53.128;17.958;2023-08-06T11:23:41;99073.64;;;20.35;82.79
79374;BME280;68844;53.128;17.958;2023-08-06T11:26:08;99067.33;;;20.46;82.50
79374;BME280;68844;53.128;17.958;2023-08-06T11:28:35;99063.63;;;20.39;82.73
79374;BME280;68844;53.128;17.958;2023-08-06T11:31:02;99057.63;;;20.39;82.23
79374;BME280;68844;53.128;17.958;2023-08-06T11:33:29;99056.15;;;20.23;82.50
79374;BME280;68844;53.128;17.958;2023-08-06T11:35:58;99051.14;;;20.12;82.78
79374;BME280;68844;53.128;17.958;2023-08-06T11:38:27;99042.01;;;20.05;83.47
79374;BME280;68844;53.128;17.958;2023-08-06T11:40:55;99024.85;;;20.12;83.31
79374;BME280;68844;53.128;17.958;2023-08-06T11:43:24;99018.42;;;20.12;83.15
79374;BME280;68844;53.128;17.958;2023-08-06T11:45:55;99006.55;;;20.04;83.51
79374;BME280;68844;53.128;17.958;2023-08-06T11:48:22;99014.64;;;19.97;83.88
79374;BME280;68844;53.128;17.958;2023-08-06T11:50:54;99007.85;;;20.02;84.11
79374;BME280;68844;53.128;17.958;2023-08-06T11:53:27;99009.43;;;20.01;84.30
79374;BME280;68844;53.128;17.958;2023-08-06T11:55:54;99011.59;;;19.89;84.40
79374;BME280;68844;53.128;17.958;2023-08-06T11:58:21;99007.92;;;19.90;84.60
79374;BME280;68844;53.128;17.958;2023-08-06T12:00:48;99004.16;;;19.89;84.89
79374;BME280;68844;53.128;17.958;2023-08-06T12:03:19;99000.06;;;19.91;84.67
79374;BME280;68844;53.128;17.958;2023-08-06T12:05:45;98998.64;;;19.90;84.98
79374;BME280;68844;53.128;17.958;2023-08-06T12:08:13;98992.70;;;19.89;85.11
79374;BME280;68844;53.128;17.958;2023-08-06T12:10:40;98979.64;;;19.90;85.13
79374;BME280;68844;53.128;17.958;2023-08-06T12:13:07;98978.19;;;19.90;85.16
79374;BME280;68844;53.128;17.958;2023-08-06T12:15:34;98983.11;;;19.94;85.20
79374;BME280;68844;53.128;17.958;2023-08-06T12:18:01;98986.61;;;19.99;85.16
79374;BME280;68844;53.128;17.958;2023-08-06T12:20:27;98991.17;;;20.00;85.32
79374;BME280;68844;53.128;17.958;2023-08-06T12:22:54;98995.69;;;20.04;85.02
79374;BME280;68844;53.128;17.958;2023-08-06T12:25:21;98994.49;;;20.03;85.07
79374;BME280;68844;53.128;17.958;2023-08-06T12:27:49;98992.20;;;19.96;85.18
79374;BME280;68844;53.128;17.958;2023-08-06T12:30:16;98990.21;;;20.00;85.09
79374;BME280;68844;53.128;17.958;2023-08-06T12:32:43;98988.80;;;20.03;85.13
79374;BME280;68844;53.128;17.958;2023-08-06T12:35:10;98984.71;;;20.07;85.35
79374;BME280;68844;53.128;17.958;2023-08-06T12:37:37;98987.38;;;20.03;85.14
79374;BME280;68844;53.128;17.958;2023-08-06T12:40:06;98979.87;;;20.00;85.06
79374;BME280;68844;53.128;17.958;2023-08-06T12:42:33;98979.02;;;20.03;85.15
79374;BME280;68844;53.128;17.958;2023-08-06T12:44:59;98975.33;;;20.01;85.68
79374;BME280;68844;53.128;17.958;2023-08-06T12:47:26;98956.17;;;20.02;85.46
79374;BME280;68844;53.128;17.958;2023-08-06T12:49:52;98949.29;;;20.09;85.35
79374;BME280;68844;53.128;17.958;2023-08-06T12:52:19;98948.72;;;20.06;85.54
79374;BME280;68844;53.128;17.958;2023-08-06T12:54:46;98944.84;;;20.07;85.65
79374;BME280;68844;53.128;17.958;2023-08-06T12:57:13;98941.65;;;20.01;86.03
79374;BME280;68844;53.128;17.958;2023-08-06T12:59:40;98936.72;;;19.98;86.23
79374;BME280;68844;53.128;17.958;2023-08-06T13:02:07;98933.62;;;20.01;86.11
79374;BME280;68844;53.128;17.958;2023-08-06T13:04:34;98929.64;;;20.07;86.36
79374;BME280;68844;53.128;17.958;2023-08-06T13:07:00;98928.96;;;20.07;86.14
79374;BME280;68844;53.128;17.958;2023-08-06T13:09:29;98923.20;;;20.13;86.20
79374;BME280;68844;53.128;17.958;2023-08-06T13:12:01;98917.91;;;20.26;86.10
79374;BME280;68844;53.128;17.958;2023-08-06T13:14:35;98914.94;;;20.41;86.13
79374;BME280;68844;53.128;17.958;2023-08-06T13:17:02;98905.41;;;20.61;85.51
79374;BME280;68844;53.128;17.958;2023-08-06T13:19:31;98895.29;;;20.79;85.42
79374;BME280;68844;53.128;17.958;2023-08-06T13:22:00;98890.65;;;20.92;85.16
79374;BME280;68844;53.128;17.958;2023-08-06T13:24:34;98885.77;;;21.05;84.25
79374;BME280;68844;53.128;17.958;2023-08-06T13:27:01;98877.64;;;21.31;83.90
79374;BME280;68844;53.128;17.958;2023-08-06T13:29:30;98876.96;;;21.51;83.29
79374;BME280;68844;53.128;17.958;2023-08-06T13:31:58;98879.34;;;21.65;82.97
79374;BME280;68844;53.128;17.958;2023-08-06T13:34:30;98884.27;;;21.68;82.40
79374;BME280;68844;53.128;17.958;2023-08-06T13:37:00;98877.63;;;21.81;82.41
79374;BME280;68844;53.128;17.958;2023-08-06T13:39:27;98869.03;;;22.10;81.48
79374;BME280;68844;53.128;17.958;2023-08-06T13:41:58;98878.80;;;22.19;81.62
79374;BME280;68844;53.128;17.958;2023-08-06T13:44:25;98890.39;;;22.01;81.46
79374;BME280;68844;53.128;17.958;2023-08-06T13:46:55;98897.70;;;21.81;81.77
79374;BME280;68844;53.128;17.958;2023-08-06T13:49:26;98893.45;;;21.73;81.92
79374;BME280;68844;53.128;17.958;2023-08-06T13:51:53;98889.38;;;21.63;82.17
79374;BME280;68844;53.128;17.958;2023-08-06T13:54:20;98887.47;;;21.60;82.49
79374;BME280;68844;53.128;17.958;2023-08-06T13:56:47;98886.72;;;21.72;82.46
79374;BME280;68844;53.128;17.958;2023-08-06T13:59:14;98889.04;;;21.76;82.14
79374;BME280;68844;53.128;17.958;2023-08-06T14:01:42;98884.83;;;21.79;82.26
79374;BME280;68844;53.128;17.958;2023-08-06T14:04:08;98881.72;;;21.95;82.35
79374;BME280;68844;53.128;17.958;2023-08-06T14:06:36;98865.14;;;22.23;81.86
79374;BME280;68844;53.128;17.958;2023-08-06T14:09:03;98868.11;;;22.40;81.80
79374;BME280;68844;53.128;17.958;2023-08-06T14:11:30;98852.19;;;22.59;81.37
79374;BME280;68844;53.128;17.958;2023-08-06T14:13:58;98857.88;;;22.72;81.05
79374;BME280;68844;53.128;17.958;2023-08-06T14:16:24;98860.04;;;22.72;80.79
79374;BME280;68844;53.128;17.958;2023-08-06T14:18:51;98864.64;;;22.77;80.77
79374;BME280;68844;53.128;17.958;2023-08-06T14:21:19;98869.93;;;22.73;80.73
79374;BME280;68844;53.128;17.958;2023-08-06T14:23:46;98880.03;;;22.67;80.76
79374;BME280;68844;53.128;17.958;2023-08-06T14:26:13;98895.67;;;22.54;80.50
79374;BME280;68844;53.128;17.958;2023-08-06T14:28:41;98899.61;;;22.26;80.68
79374;BME280;68844;53.128;17.958;2023-08-06T14:31:09;98908.73;;;22.00;81.04
79374;BME280;68844;53.128;17.958;2023-08-06T14:33:36;98900.02;;;21.87;81.02
79374;BME280;68844;53.128;17.958;2023-08-06T14:36:06;98900.02;;;21.83;81.09
79374;BME280;68844;53.128;17.958;2023-08-06T14:38:33;98896.20;;;21.85;80.81
79374;BME280;68844;53.128;17.958;2023-08-06T14:41:00;98892.82;;;22.02;80.57
79374;BME280;68844;53.128;17.958;2023-08-06T14:43:28;98883.65;;;22.35;80.38
79374;BME280;68844;53.128;17.958;2023-08-06T14:45:55;98876.85;;;22.75;80.19
79374;BME280;68844;53.128;17.958;2023-08-06T14:48:26;98868.54;;;23.01;79.84
79374;BME280;68844;53.128;17.958;2023-08-06T14:50:54;98864.98;;;22.97;78.77
79374;BME280;68844;53.128;17.958;2023-08-06T14:53:22;98874.37;;;22.78;78.85
79374;BME280;68844;53.128;17.958;2023-08-06T14:55:49;98880.96;;;22.56;78.05
79374;BME280;68844;53.128;17.958;2023-08-06T14:58:16;98883.84;;;22.29;77.08
79374;BME280;68844;53.128;17.958;2023-08-06T15:00:45;98884.40;;;21.94;77.75
79374;BME280;68844;53.128;17.958;2023-08-06T15:03:12;98891.16;;;21.75;77.48
79374;BME280;68844;53.128;17.958;2023-08-06T15:05:43;98895.71;;;21.49;77.57
79374;BME280;68844;53.128;17.958;2023-08-06T15:08:11;98905.79;;;21.24;77.80
79374;BME280;68844;53.128;17.958;2023-08-06T15:10:38;98908.69;;;20.97;78.21
79374;BME280;68844;53.128;17.958;2023-08-06T15:13:06;98905.59;;;20.68;78.21
79374;BME280;68844;53.128;17.958;2023-08-06T15:15:33;98909.17;;;20.40;78.10
79374;BME280;68844;53.128;17.958;2023-08-06T15:18:10;98912.88;;;20.13;78.53
79374;BME280;68844;53.128;17.958;2023-08-06T15:20:38;98919.36;;;19.91;79.11
79374;BME280;68844;53.128;17.958;2023-08-06T15:23:06;98923.59;;;19.71;79.50
79374;BME280;68844;53.128;17.958;2023-08-06T15:25:34;98933.42;;;19.53;79.60
79374;BME280;68844;53.128;17.958;2023-08-06T15:28:01;98931.97;;;19.43;79.59
79374;BME280;68844;53.128;17.958;2023-08-06T15:30:28;98940.77;;;19.36;80.18
79374;BME280;68844;53.128;17.958;2023-08-06T15:32:56;98942.80;;;19.36;80.27
79374;BME280;68844;53.128;17.958;2023-08-06T15:35:23;98941.73;;;19.36;80.43
79374;BME280;68844;53.128;17.958;2023-08-06T15:37:50;98944.09;;;19.27;80.28
79374;BME280;68844;53.128;17.958;2023-08-06T15:40:17;98940.54;;;19.27;79.94
79374;BME280;68844;53.128;17.958;2023-08-06T15:42:44;98945.86;;;19.34;79.92
79374;BME280;68844;53.128;17.958;2023-08-06T15:45:11;98947.61;;;19.39;79.99
79374;BME280;68844;53.128;17.958;2023-08-06T15:47:38;98950.20;;;19.32;79.82
79374;BME280;68844;53.128;17.958;2023-08-06T15:50:08;98944.52;;;19.29;79.56
79374;BME280;68844;53.128;17.958;2023-08-06T15:52:36;98937.85;;;19.30;79.28
79374;BME280;68844;53.128;17.958;2023-08-06T15:55:03;98943.41;;;19.22;79.33
79374;BME280;68844;53.128;17.958;2023-08-06T15:57:33;98945.27;;;19.17;79.23
79374;BME280;68844;53.128;17.958;2023-08-06T16:00:02;98941.83;;;19.12;78.94
79374;BME280;68844;53.128;17.958;2023-08-06T16:02:38;98953.77;;;19.05;79.17
79374;BME280;68844;53.128;17.958;2023-08-06T16:05:05;98973.92;;;19.05;79.25
79374;BME280;68844;53.128;17.958;2023-08-06T16:07:31;98977.47;;;18.96;79.33
79374;BME280;68844;53.128;17.958;2023-08-06T16:09:59;98982.34;;;18.91;79.72
79374;BME280;68844;53.128;17.958;2023-08-06T16:12:25;98974.58;;;18.87;79.93
79374;BME280;68844;53.128;17.958;2023-08-06T16:14:52;98980.67;;;18.90;79.49
79374;BME280;68844;53.128;17.958;2023-08-06T16:17:19;98997.02;;;18.80;79.27
79374;BME280;68844;53.128;17.958;2023-08-06T16:19:46;99003.12;;;18.66;79.92
79374;BME280;68844;53.128;17.958;2023-08-06T16:22:12;99009.12;;;18.57;80.14
79374;BME280;68844;53.128;17.958;2023-08-06T16:24:39;99018.34;;;18.45;79.77
79374;BME280;68844;53.128;17.958;2023-08-06T16:27:06;99011.22;;;18.38;80.07
79374;BME280;68844;53.128;17.958;2023-08-06T16:29:33;99011.51;;;18.34;79.97
79374;BME280;68844;53.128;17.958;2023-08-06T16:32:00;99022.45;;;18.28;80.44
79374;BME280;68844;53.128;17.958;2023-08-06T16:34:27;99041.45;;;18.19;80.44
79374;BME280;68844;53.128;17.958;2023-08-06T16:36:54;99040.64;;;18.06;80.36
79374;BME280;68844;53.128;17.958;2023-08-06T16:39:20;99034.42;;;17.91;80.80
79374;BME280;68844;53.128;17.958;2023-08-06T16:41:49;99040.31;;;17.83;80.75
79374;BME280;68844;53.128;17.958;2023-08-06T16:44:16;99051.72;;;17.77;80.90
79374;BME280;68844;53.128;17.958;2023-08-06T16:46:43;99052.89;;;17.70;81.61
79374;BME280;68844;53.128;17.958;2023-08-06T16:49:09;99049.73;;;17.60;81.37
79374;BME280;68844;53.128;17.958;2023-08-06T16:51:36;99050.67;;;17.57;81.15
79374;BME280;68844;53.128;17.958;2023-08-06T16:54:05;99046.55;;;17.53;81.14
79374;BME280;68844;53.128;17.958;2023-08-06T16:56:35;99036.15;;;17.44;81.76
79374;BME280;68844;53.128;17.958;2023-08-06T16:59:01;99032.64;;;17.38;81.67
79374;BME280;68844;53.128;17.958;2023-08-06T17:01:31;99040.57;;;17.29;81.72
79374;BME280;68844;53.128;17.958;2023-08-06T17:03:58;99057.34;;;17.22;81.70
79374;BME280;68844;53.128;17.958;2023-08-06T17:06:25;99062.15;;;17.16;81.99
79374;BME280;68844;53.128;17.958;2023-08-06T17:08:53;99056.63;;;17.16;82.17
79374;BME280;68844;53.128;17.958;2023-08-06T17:11:20;99060.02;;;17.14;82.78
79374;BME280;68844;53.128;17.958;2023-08-06T17:14:01;99063.14;;;17.09;82.30
79374;BME280;68844;53.128;17.958;2023-08-06T17:16:28;99066.58;;;17.05;82.84
79374;BME280;68844;53.128;17.958;2023-08-06T17:18:56;99065.90;;;17.05;82.67
79374;BME280;68844;53.128;17.958;2023-08-06T17:21:25;99074.56;;;17.11;82.91
79374;BME280;68844;53.128;17.958;2023-08-06T17:23:55;99067.64;;;17.08;82.96
79374;BME280;68844;53.128;17.958;2023-08-06T17:26:25;99063.01;;;17.05;82.47
79374;BME280;68844;53.128;17.958;2023-08-06T17:28:54;99063.59;;;17.06;82.27
79374;BME280;68844;53.128;17.958;2023-08-06T17:31:36;99081.70;;;16.99;82.27
79374;BME280;68844;53.128;17.958;2023-08-06T17:34:05;99092.36;;;16.94;82.66
79374;BME280;68844;53.128;17.958;2023-08-06T17:36:33;99094.04;;;16.88;82.61
79374;BME280;68844;53.128;17.958;2023-08-06T17:39:00;99092.84;;;16.81;82.57
79374;BME280;68844;53.128;17.958;2023-08-06T17:41:27;99083.52;;;16.75;82.50
79374;BME280;68844;53.128;17.958;2023-08-06T17:43:57;99089.58;;;16.75;82.67
79374;BME280;68844;53.128;17.958;2023-08-06T17:46:23;99091.54;;;16.72;83.18
79374;BME280;68844;53.128;17.958;2023-08-06T17:48:50;99089.94;;;16.69;83.08
79374;BME280;68844;53.128;17.958;2023-08-06T17:51:25;99087.18;;;16.60;83.64
79374;BME280;68844;53.128;17.958;2023-08-06T17:53:52;99094.64;;;16.58;83.09
79374;BME280;68844;53.128;17.958;2023-08-06T17:56:19;99091.95;;;16.55;83.22
79374;BME280;68844;53.128;17.958;2023-08-06T17:58:46;99087.50;;;16.55;83.28
79374;BME280;68844;53.128;17.958;2023-08-06T18:01:12;99099.63;;;16.55;83.50
79374;BME280;68844;53.128;17.958;2023-08-06T18:03:40;99100.63;;;16.47;83.63
79374;BME280;68844;53.128;17.958;2023-08-06T18:06:07;99104.81;;;16.40;83.43
79374;BME280;68844;53.128;17.958;2023-08-06T18:08:34;99107.73;;;16.34;83.71
79374;BME280;68844;53.128;17.958;2023-08-06T18:11:01;99111.02;;;16.30;83.84
79374;BME280;68844;53.128;17.958;2023-08-06T18:13:27;99108.38;;;16.23;84.20
79374;BME280;68844;53.128;17.958;2023-08-06T18:15:54;99110.37;;;16.16;84.04
79374;BME280;68844;53.128;17.958;2023-08-06T18:18:21;99108.48;;;16.12;84.30
79374;BME280;68844;53.128;17.958;2023-08-06T18:20:47;99107.67;;;16.10;84.61
79374;BME280;68844;53.128;17.958;2023-08-06T18:23:14;99115.80;;;16.00;84.82
79374;BME280;68844;53.128;17.958;2023-08-06T18:25:41;99124.02;;;15.96;84.87
79374;BME280;68844;53.128;17.958;2023-08-06T18:28:08;99128.34;;;15.94;84.55
79374;BME280;68844;53.128;17.958;2023-08-06T18:30:39;99122.48;;;15.92;84.72
79374;BME280;68844;53.128;17.958;2023-08-06T18:33:06;99116.56;;;15.89;85.06
79374;BME280;68844;53.128;17.958;2023-08-06T18:35:33;99125.08;;;15.88;85.46
79374;BME280;68844;53.128;17.958;2023-08-06T18:37:59;99143.76;;;15.81;85.21
79374;BME280;68844;53.128;17.958;2023-08-06T18:40:29;99149.29;;;15.77;85.12
79374;BME280;68844;53.128;17.958;2023-08-06T18:42:56;99154.45;;;15.77;84.91
79374;BME280;68844;53.128;17.958;2023-08-06T18:45:22;99154.48;;;15.75;85.35
79374;BME280;68844;53.128;17.958;2023-08-06T18:47:49;99147.88;;;15.74;85.47
79374;BME280;68844;53.128;17.958;2023-08-06T18:50:17;99140.92;;;15.66;85.61
79374;BME280;68844;53.128;17.958;2023-08-06T18:52:44;99137.09;;;15.62;85.28
79374;BME280;68844;53.128;17.958;2023-08-06T18:55:11;99129.67;;;15.63;85.36
79374;BME280;68844;53.128;17.958;2023-08-06T18:57:38;99128.70;;;15.60;85.55
79374;BME280;68844;53.128;17.958;2023-08-06T19:00:05;99131.82;;;15.57;85.72
79374;BME280;68844;53.128;17.958;2023-08-06T19:02:32;99140.52;;;15.50;85.89
79374;BME280;68844;53.128;17.958;2023-08-06T19:04:59;99139.91;;;15.46;86.15
79374;BME280;68844;53.128;17.958;2023-08-06T19:07:26;99147.80;;;15.43;86.02
79374;BME280;68844;53.128;17.958;2023-08-06T19:09:53;99155.80;;;15.38;86.51
79374;BME280;68844;53.128;17.958;2023-08-06T19:12:20;99155.69;;;15.38;86.26
79374;BME280;68844;53.128;17.958;2023-08-06T19:14:49;99154.48;;;15.34;86.35
79374;BME280;68844;53.128;17.958;2023-08-06T19:17:17;99162.83;;;15.30;86.35
79374;BME280;68844;53.128;17.958;2023-08-06T19:19:44;99166.94;;;15.28;86.67
79374;BME280;68844;53.128;17.958;2023-08-06T19:22:11;99168.77;;;15.24;86.67
79374;BME280;68844;53.128;17.958;2023-08-06T19:24:41;99168.35;;;15.21;86.87
79374;BME280;68844;53.128;17.958;2023-08-06T19:27:08;99164.63;;;15.16;86.99
79374;BME280;68844;53.128;17.958;2023-08-06T19:29:37;99163.16;;;15.13;86.86
79374;BME280;68844;53.128;17.958;2023-08-06T19:32:04;99160.00;;;15.14;86.87
79374;BME280;68844;53.128;17.958;2023-08-06T19:34:34;99156.75;;;15.15;86.73
79374;BME280;68844;53.128;17.958;2023-08-06T19:37:01;99154.95;;;15.15;86.72
79374;BME280;68844;53.128;17.958;2023-08-06T19:39:28;99151.13;;;15.12;86.81
79374;BME280;68844;53.128;17.958;2023-08-06T19:41:55;99148.92;;;15.11;86.68
79374;BME280;68844;53.128;17.958;2023-08-06T19:44:22;99151.35;;;15.09;87.10
79374;BME280;68844;53.128;17.958;2023-08-06T19:46:49;99151.67;;;15.09;87.14
79374;BME280;68844;53.128;17.958;2023-08-06T19:49:16;99136.15;;;15.05;87.19
79374;BME280;68844;53.128;17.958;2023-08-06T19:51:44;99130.84;;;15.01;87.06
79374;BME280;68844;53.128;17.958;2023-08-06T19:54:12;99132.63;;;15.01;87.06
79374;BME280;68844;53.128;17.958;2023-08-06T19:56:40;99129.58;;;15.01;87.11
79374;BME280;68844;53.128;17.958;2023-08-06T19:59:07;99123.77;;;14.99;87.40
79374;BME280;68844;53.128;17.958;2023-08-06T20:01:34;99126.09;;;14.94;87.16
79374;BME280;68844;53.128;17.958;2023-08-06T20:04:00;99134.31;;;14.90;87.44
79374;BME280;68844;53.128;17.958;2023-08-06T20:06:27;99136.36;;;14.89;87.46
79374;BME280;68844;53.128;17.958;2023-08-06T20:08:56;99135.18;;;14.85;87.55
79374;BME280;68844;53.128;17.958;2023-08-06T20:11:23;99137.23;;;14.78;87.71
79374;BME280;68844;53.128;17.958;2023-08-06T20:13:49;99132.77;;;14.75;87.47
79374;BME280;68844;53.128;17.958;2023-08-06T20:16:16;99144.38;;;14.76;87.53
79374;BME280;68844;53.128;17.958;2023-08-06T20:18:43;99154.70;;;14.79;87.58
79374;BME280;68844;53.128;17.958;2023-08-06T20:21:10;99146.61;;;14.78;88.11
79374;BME280;68844;53.128;17.958;2023-08-06T20:23:36;99149.67;;;14.73;87.96
79374;BME280;68844;53.128;17.958;2023-08-06T20:26:03;99155.58;;;14.70;87.72
79374;BME280;68844;53.128;17.958;2023-08-06T20:28:30;99150.99;;;14.72;87.90
79374;BME280;68844;53.128;17.958;2023-08-06T20:30:57;99151.39;;;14.68;88.27
79374;BME280;68844;53.128;17.958;2023-08-06T20:33:24;99151.13;;;14.65;88.28
79374;BME280;68844;53.128;17.958;2023-08-06T20:35:51;99159.53;;;14.65;88.04
79374;BME280;68844;53.128;17.958;2023-08-06T20:38:18;99171.84;;;14.64;88.10
79374;BME280;68844;53.128;17.958;2023-08-06T20:40:46;99179.30;;;14.62;88.31
79374;BME280;68844;53.128;17.958;2023-08-06T20:43:12;99179.79;;;14.61;88.35
79374;BME280;68844;53.128;17.958;2023-08-06T20:45:39;99177.30;;;14.61;88.51
79374;BME280;68844;53.128;17.958;2023-08-06T20:48:06;99170.13;;;14.58;88.28
79374;BME280;68844;53.128;17.958;2023-08-06T20:50:33;99174.70;;;14.60;88.28
79374;BME280;68844;53.128;17.958;2023-08-06T20:53:00;99177.14;;;14.60;88.39
79374;BME280;68844;53.128;17.958;2023-08-06T20:55:27;99180.00;;;14.59;88.38
79374;BME280;68844;53.128;17.958;2023-08-06T20:57:54;99181.52;;;14.52;88.68
79374;BME280;68844;53.128;17.958;2023-08-06T21:00:23;99184.97;;;14.48;88.57
79374;BME280;68844;53.128;17.958;2023-08-06T21:02:55;99185.58;;;14.49;88.49
79374;BME280;68844;53.128;17.958;2023-08-06T21:05:23;99184.93;;;14.50;88.62
79374;BME280;68844;53.128;17.958;2023-08-06T21:07:51;99180.61;;;14.43;88.78
79374;BME280;68844;53.128;17.958;2023-08-06T21:10:18;99177.08;;;14.39;88.80
79374;BME280;68844;53.128;17.958;2023-08-06T21:12:45;99177.07;;;14.44;88.39
79374;BME280;68844;53.128;17.958;2023-08-06T21:15:12;99183.79;;;14.42;88.81
79374;BME280;68844;53.128;17.958;2023-08-06T21:17:42;99181.67;;;14.36;88.65
79374;BME280;68844;53.128;17.958;2023-08-06T21:20:10;99178.63;;;14.31;88.90
79374;BME280;68844;53.128;17.958;2023-08-06T21:22:37;99184.73;;;14.31;88.68
79374;BME280;68844;53.128;17.958;2023-08-06T21:25:04;99187.17;;;14.33;88.72
79374;BME280;68844;53.128;17.958;2023-08-06T21:27:31;99191.42;;;14.35;88.64
79374;BME280;68844;53.128;17.958;2023-08-06T21:29:58;99200.33;;;14.39;88.85
79374;BME280;68844;53.128;17.958;2023-08-06T21:32:25;99199.69;;;14.34;89.02
79374;BME280;68844;53.128;17.958;2023-08-06T21:34:52;99199.75;;;14.32;88.75
79374;BME280;68844;53.128;17.958;2023-08-06T21:37:19;99206.53;;;14.33;88.78
79374;BME280;68844;53.128;17.958;2023-08-06T21:39:46;99215.31;;;14.34;88.91
79374;BME280;68844;53.128;17.958;2023-08-06T21:42:13;99218.05;;;14.31;88.70
79374;BME280;68844;53.128;17.958;2023-08-06T21:44:40;99207.98;;;14.27;88.93
79374;BME280;68844;53.128;17.958;2023-08-06T21:47:06;99208.59;;;14.27;89.14
79374;BME280;68844;53.128;17.958;2023-08-06T21:49:33;99207.58;;;14.24;89.34
79374;BME280;68844;53.128;17.958;2023-08-06T21:52:01;99222.98;;;14.22;89.17
79374;BME280;68844;53.128;17.958;2023-08-06T21:54:28;99228.85;;;14.22;89.20
79374;BME280;68844;53.128;17.958;2023-08-06T21:56:54;99225.20;;;14.20;88.97
79374;BME280;68844;53.128;17.958;2023-08-06T21:59:21;99226.84;;;14.14;88.87
79374;BME280;68844;53.128;17.958;2023-08-06T22:01:48;99235.50;;;14.16;88.77
79374;BME280;68844;53.128;17.958;2023-08-06T22:04:15;99245.80;;;14.13;89.49
79374;BME280;68844;53.128;17.958;2023-08-06T22:06:41;99253.27;;;14.12;89.15
79374;BME280;68844;53.128;17.958;2023-08-06T22:09:08;99252.27;;;14.07;89.27
79374;BME280;68844;53.128;17.958;2023-08-06T22:11:35;99252.44;;;14.11;89.34
79374;BME280;68844;53.128;17.958;2023-08-06T22:14:02;99253.23;;;14.12;89.70
79374;BME280;68844;53.128;17.958;2023-08-06T22:16:29;99251.35;;;14.11;89.38
79374;BME280;68844;53.128;17.958;2023-08-06T22:18:55;99251.55;;;14.11;89.44
79374;BME280;68844;53.128;17.958;2023-08-06T22:21:22;99252.00;;;14.14;89.53
79374;BME280;68844;53.128;17.958;2023-08-06T22:23:49;99245.99;;;14.13;89.44
79374;BME280;68844;53.128;17.958;2023-08-06T22:26:15;99243.41;;;14.11;89.36
79374;BME280;68844;53.128;17.958;2023-08-06T22:28:42;99245.65;;;14.10;89.34
79374;BME280;68844;53.128;17.958;2023-08-06T22:31:09;99243.35;;;14.08;89.39
79374;BME280;68844;53.128;17.958;2023-08-06T22:33:41;99255.02;;;14.04;89.66
79374;BME280;68844;53.128;17.958;2023-08-06T22:36:08;99260.08;;;14.04;89.58
79374;BME280;68844;53.128;17.958;2023-08-06T22:38:35;99255.27;;;14.04;89.70
79374;BME280;68844;53.128;17.958;2023-08-06T22:41:01;99251.96;;;14.03;89.61
79374;BME280;68844;53.128;17.958;2023-08-06T22:43:28;99248.11;;;14.02;89.49
79374;BME280;68844;53.128;17.958;2023-08-06T22:45:55;99251.19;;;14.02;89.37
79374;BME280;68844;53.128;17.958;2023-08-06T22:48:22;99251.18;;;13.96;89.56
79374;BME280;68844;53.128;17.958;2023-08-06T22:50:48;99251.63;;;13.88;89.65
79374;BME280;68844;53.128;17.958;2023-08-06T22:53:15;99247.44;;;13.87;89.74
79374;BME280;68844;53.128;17.958;2023-08-06T22:55:42;99245.58;;;13.86;89.84
79374;BME280;68844;53.128;17.958;2023-08-06T22:58:09;99249.42;;;13.85;89.99
79374;BME280;68844;53.128;17.958;2023-08-06T23:00:35;99254.18;;;13.85;90.23
79374;BME280;68844;53.128;17.958;2023-08-06T23:03:02;99249.61;;;13.81;89.89
79374;BME280;68844;53.128;17.958;2023-08-06T23:05:29;99252.00;;;13.80;89.76